Time;durP1;ratioP1;P1;durP2;ratioP2;P2;SDS_P1;SDS_P2;PMS_P1;PMS_P2;Temp;Humidity;BMP_temperature;BMP_pressure;BME280_temperature;BME280_humidity;BME280_pressure;Samples;Min_cycle;Max_cycle;Signal;HPM_P1;HPM_P2
2022/09/14 00:01:56;;;;;;;1.00;0.65;;;16.90;99.90;;;;;;5029435;28;20037;-39
2022/09/14 00:04:22;;;;;;;1.55;0.55;;;16.90;99.90;;;;;;5034940;28;20021;-35
2022/09/14 00:06:48;;;;;;;1.15;0.70;;;16.90;99.90;;;;;;5026814;28;20030;-35
2022/09/14 00:09:17;;;;;;;3.80;0.50;;;17.00;99.90;;;;;;5031482;28;20171;-34
2022/09/14 00:11:43;;;;;;;8.57;0.70;;;16.90;99.90;;;;;;5031709;28;20021;-43
2022/09/14 00:14:09;;;;;;;3.10;1.17;;;16.90;99.90;;;;;;5034585;28;20037;-34
2022/09/14 00:16:38;;;;;;;1.05;0.40;;;16.90;99.90;;;;;;5033233;28;20544;-38
2022/09/14 00:19:19;;;;;;;4.47;1.05;;;16.90;99.90;;;;;;5016802;28;20041;-35
2022/09/14 00:21:44;;;;;;;3.45;1.10;;;16.90;99.90;;;;;;5034278;28;20494;-33
2022/09/14 00:24:11;;;;;;;1.25;0.70;;;16.90;99.90;;;;;;5035212;28;20028;-33
2022/09/14 00:26:37;;;;;;;1.58;0.45;;;16.90;99.90;;;;;;5034233;28;20026;-31
2022/09/14 00:29:03;;;;;;;4.78;0.90;;;16.90;99.90;;;;;;5033163;28;20025;-35
2022/09/14 00:31:31;;;;;;;0.93;0.47;;;16.90;99.90;;;;;;5024229;28;20478;-30
2022/09/14 00:33:57;;;;;;;;;;;17.00;99.90;;;;;;5033501;28;20049;-33
2022/09/14 00:36:25;;;;;;;4.60;0.85;;;16.90;99.90;;;;;;5034082;28;20404;-33
2022/09/14 00:38:54;;;;;;;9.93;0.80;;;16.90;99.90;;;;;;5033880;28;20493;-41
2022/09/14 00:41:26;;;;;;;4.30;0.80;;;16.80;99.90;;;;;;5034164;28;20025;-40
2022/09/14 00:44:09;;;;;;;4.50;0.68;;;16.90;99.90;;;;;;5035039;28;20104;-40
2022/09/14 00:46:43;;;;;;;4.13;0.77;;;16.80;99.90;;;;;;5022657;28;20773;-38
2022/09/14 00:49:22;;;;;;;6.15;0.80;;;16.80;99.90;;;;;;5029971;28;20029;-33
2022/09/14 00:51:59;;;;;;;4.03;0.80;;;16.80;99.90;;;;;;5030089;28;20061;-32
2022/09/14 00:54:25;;;;;;;4.43;0.60;;;16.80;99.90;;;;;;5032269;28;20543;-40
2022/09/14 00:56:51;;;;;;;6.05;0.80;;;16.80;99.90;;;;;;5027416;28;20101;-42
2022/09/14 00:59:24;;;;;;;7.38;0.88;;;16.90;99.90;;;;;;5029048;28;20393;-40
2022/09/14 01:01:50;;;;;;;1.92;0.60;;;16.90;99.90;;;;;;5030084;28;20081;-38
2022/09/14 01:04:16;;;;;;;3.70;0.45;;;16.80;99.90;;;;;;5027952;28;20030;-41
2022/09/14 01:07:20;;;;;;;2.78;1.00;;;16.80;99.90;;;;;;5032340;28;20049;-39
2022/09/14 01:09:50;;;;;;;3.38;0.60;;;16.90;99.90;;;;;;5032513;28;20032;-41
2022/09/14 01:12:44;;;;;;;1.85;0.70;;;16.90;99.90;;;;;;5031254;28;20490;-48
2022/09/14 01:15:21;;;;;;;2.78;0.75;;;16.90;99.90;;;;;;5030886;28;20549;-31
2022/09/14 01:17:58;;;;;;;0.73;0.57;;;16.90;99.90;;;;;;5024316;28;20037;-32
2022/09/14 01:20:41;;;;;;;3.03;0.50;;;16.90;99.90;;;;;;5032830;28;20056;-34
2022/09/14 01:23:32;;;;;;;2.65;0.60;;;16.90;99.90;;;;;;5014326;28;20030;-35
2022/09/14 01:26:23;;;;;;;5.70;0.90;;;16.80;99.90;;;;;;5026041;28;20469;-40
2022/09/14 01:29:26;;;;;;;4.15;0.68;;;16.80;99.90;;;;;;5048428;28;20398;-34
2022/09/14 01:32:24;;;;;;;8.15;0.93;;;16.80;99.90;;;;;;5004990;28;20065;-40
2022/09/14 01:35:00;;;;;;;3.33;1.05;;;16.80;99.90;;;;;;5015968;28;20065;-40
2022/09/14 01:37:35;;;;;;;4.30;0.85;;;16.90;99.90;;;;;;5027397;28;20489;-39
2022/09/14 01:40:22;;;;;;;2.58;0.98;;;16.80;99.90;;;;;;5033153;28;20026;-33
2022/09/14 01:42:53;;;;;;;2.05;0.65;;;16.80;99.90;;;;;;5032680;28;20033;-35
2022/09/14 01:45:22;;;;;;;7.80;0.63;;;16.70;99.90;;;;;;5025919;28;20120;-33
2022/09/14 01:48:00;;;;;;;3.70;0.73;;;16.70;99.90;;;;;;5024386;28;20489;-35
2022/09/14 01:50:32;;;;;;;2.90;0.90;;;16.70;99.90;;;;;;5029161;28;21515;-35
2022/09/14 01:53:33;;;;;;;3.08;0.80;;;16.70;99.90;;;;;;5032261;28;20030;-35
2022/09/14 01:56:19;;;;;;;1.15;0.40;;;16.80;99.90;;;;;;5020672;28;20473;-33
2022/09/14 01:58:53;;;;;;;3.38;0.70;;;16.70;99.90;;;;;;5030461;28;20056;-34
2022/09/14 02:01:23;;;;;;;5.47;0.88;;;16.70;99.90;;;;;;5031546;28;20041;-31
2022/09/14 02:03:55;;;;;;;2.17;0.43;;;16.70;99.90;;;;;;5030734;28;20520;-33
2022/09/14 02:06:45;;;;;;;1.35;0.60;;;16.70;99.90;;;;;;5024393;28;20026;-36
2022/09/14 02:09:17;;;;;;;3.53;0.40;;;16.70;99.90;;;;;;5032673;28;20374;-31
2022/09/14 02:11:43;;;;;;;3.15;0.68;;;16.70;99.90;;;;;;5032344;28;20439;-33
2022/09/14 02:14:09;;;;;;;1.02;0.40;;;16.70;99.90;;;;;;5030126;28;20025;-33
2022/09/14 02:16:35;;;;;;;1.92;0.55;;;16.70;99.90;;;;;;5029627;28;20147;-32
2022/09/14 02:19:01;;;;;;;2.05;0.60;;;16.70;99.90;;;;;;5026064;28;20110;-33
2022/09/14 02:21:29;;;;;;;1.00;0.50;;;16.70;99.90;;;;;;5029264;28;20040;-39
2022/09/14 02:23:57;;;;;;;4.45;0.60;;;16.70;99.90;;;;;;5030970;28;20033;-43
2022/09/14 02:26:23;;;;;;;0.93;0.57;;;16.70;99.90;;;;;;5031537;28;20026;-40
2022/09/14 02:28:54;;;;;;;6.05;0.90;;;16.70;99.90;;;;;;5030741;28;20524;-38
2022/09/14 02:31:39;;;;;;;1.50;0.90;;;16.70;99.90;;;;;;5018721;28;20172;-38
2022/09/14 02:34:42;;;;;;;1.52;0.65;;;16.70;99.90;;;;;;5021523;28;20026;-34
2022/09/14 02:37:19;;;;;;;1.55;0.93;;;16.70;99.90;;;;;;5030113;28;20033;-39
2022/09/14 02:40:25;;;;;;;2.15;0.80;;;16.70;99.90;;;;;;5030420;28;20040;-39
2022/09/14 02:43:15;;;;;;;1.45;0.50;;;16.70;99.90;;;;;;5031339;28;20474;-40
2022/09/14 02:46:22;;;;;;;1.08;0.60;;;16.70;99.90;;;;;;5020305;28;20382;-40
2022/09/14 02:48:47;;;;;;;7.25;1.10;;;16.70;99.90;;;;;;5020363;28;20037;-34
2022/09/14 02:51:44;;;;;;;4.70;0.80;;;16.70;99.90;;;;;;5030344;28;20593;-31
2022/09/14 02:54:17;;;;;;;3.70;0.80;;;16.70;99.90;;;;;;5032779;28;20478;-37
2022/09/14 02:56:44;;;;;;;2.35;0.70;;;16.60;99.90;;;;;;5031897;28;20057;-31
2022/09/14 02:59:10;;;;;;;9.90;1.27;;;16.60;99.90;;;;;;5031015;28;20516;-36
2022/09/14 03:01:36;;;;;;;4.03;0.70;;;16.50;99.90;;;;;;5028009;28;20100;-38
2022/09/14 03:04:02;;;;;;;0.75;0.63;;;16.50;99.90;;;;;;5020163;28;20022;-39
2022/09/14 03:06:27;;;;;;;6.88;0.70;;;16.50;99.90;;;;;;5029896;28;20047;-39
2022/09/14 03:08:53;;;;;;;8.00;0.57;;;16.50;99.90;;;;;;5031946;28;20029;-36
2022/09/14 03:11:19;;;;;;;3.03;0.90;;;16.50;99.90;;;;;;5032283;28;20057;-30
2022/09/14 03:13:44;;;;;;;1.73;0.60;;;16.50;99.90;;;;;;5025247;28;20390;-32
2022/09/14 03:16:13;;;;;;;2.72;0.98;;;16.50;99.90;;;;;;5022884;28;20032;-32
2022/09/14 03:18:39;;;;;;;2.00;0.60;;;16.60;99.90;;;;;;5030198;28;20103;-40
2022/09/14 03:21:07;;;;;;;2.25;0.70;;;16.50;99.90;;;;;;5032028;28;20033;-40
2022/09/14 03:23:45;;;;;;;2.53;0.63;;;16.50;99.90;;;;;;5029276;28;20036;-44
2022/09/14 03:26:20;;;;;;;3.72;0.70;;;16.60;99.90;;;;;;5031881;28;20025;-40
2022/09/14 03:28:53;;;;;;;3.45;0.60;;;16.50;99.90;;;;;;5031346;28;20052;-49
2022/09/14 03:31:20;;;;;;;4.78;1.73;;;16.50;99.90;;;;;;5031700;28;20021;-38
2022/09/14 03:33:46;;;;;;;0.88;0.40;;;16.40;99.90;;;;;;5028494;28;20476;-37
2022/09/14 03:36:15;;;;;;;1.63;0.82;;;16.40;99.90;;;;;;5029684;28;20041;-33
2022/09/14 03:38:45;;;;;;;2.03;0.90;;;16.30;99.90;;;;;;5019909;28;20050;-33
2022/09/14 03:41:11;;;;;;;2.17;0.60;;;16.30;99.90;;;;;;5012841;28;20482;-37
2022/09/14 03:43:37;;;;;;;2.67;0.50;;;16.30;99.90;;;;;;5028042;28;20026;-39
2022/09/14 03:46:12;;;;;;;2.17;0.52;;;16.30;99.90;;;;;;5031604;28;20029;-33
2022/09/14 03:48:38;;;;;;;8.15;0.70;;;16.20;99.90;;;;;;5027593;28;20041;-42
2022/09/14 03:51:06;;;;;;;2.65;0.65;;;16.20;99.90;;;;;;5009477;28;20751;-39
2022/09/14 03:53:32;;;;;;;5.00;0.80;;;16.20;99.90;;;;;;5022126;28;20036;-36
2022/09/14 03:55:58;;;;;;;3.35;0.80;;;16.20;99.90;;;;;;5034900;28;20605;-36
2022/09/14 03:58:24;;;;;;;1.95;0.85;;;16.20;99.90;;;;;;5020091;28;20117;-33
2022/09/14 04:00:50;;;;;;;2.88;0.50;;;16.20;99.90;;;;;;5024404;28;20022;-32
2022/09/14 04:03:16;;;;;;;1.60;0.47;;;16.20;99.90;;;;;;5033137;28;20088;-41
2022/09/14 04:05:44;;;;;;;0.50;0.50;;;16.20;99.90;;;;;;5034738;28;20377;-40
2022/09/14 04:08:10;;;;;;;2.38;0.65;;;16.20;99.90;;;;;;5033253;28;20508;-41
2022/09/14 04:10:38;;;;;;;5.35;0.98;;;16.20;99.90;;;;;;5035949;28;20489;-40
2022/09/14 04:13:03;;;;;;;;;;;16.10;99.90;;;;;;5035394;28;20022;-39
2022/09/14 04:15:29;;;;;;;1.02;0.55;;;16.10;99.90;;;;;;5033407;28;20400;-41
2022/09/14 04:17:54;;;;;;;1.20;0.80;;;16.10;99.90;;;;;;5029476;28;20037;-42
2022/09/14 04:20:20;;;;;;;2.55;0.73;;;16.10;99.90;;;;;;5031131;28;20280;-40
2022/09/14 04:22:46;;;;;;;3.25;0.80;;;16.10;99.90;;;;;;5032973;28;20072;-41
2022/09/14 04:25:12;;;;;;;6.40;0.95;;;16.10;99.90;;;;;;5033575;28;20032;-40
2022/09/14 04:27:37;;;;;;;6.07;1.08;;;16.10;99.90;;;;;;5033016;28;20029;-40
2022/09/14 04:30:05;;;;;;;2.17;1.27;;;16.10;99.90;;;;;;5032650;28;20044;-42
2022/09/14 04:32:30;;;;;;;2.97;0.52;;;16.20;99.90;;;;;;5030282;28;20033;-46
2022/09/14 04:34:56;;;;;;;1.88;0.80;;;16.10;99.90;;;;;;5033794;28;20017;-41
2022/09/14 04:37:22;;;;;;;2.55;0.88;;;16.10;99.90;;;;;;5032268;28;20043;-31
2022/09/14 04:39:48;;;;;;;4.70;0.63;;;16.10;99.90;;;;;;5033259;28;20029;-36
2022/09/14 04:42:14;;;;;;;5.00;0.65;;;16.20;99.90;;;;;;5033306;28;20459;-32
2022/09/14 04:44:58;;;;;;;1.90;0.73;;;16.20;99.90;;;;;;5033185;28;20025;-40
2022/09/14 04:47:24;;;;;;;3.08;0.80;;;16.20;99.90;;;;;;5024870;28;20029;-40
2022/09/14 04:49:49;;;;;;;3.10;0.73;;;16.20;99.90;;;;;;5032353;28;20033;-41
2022/09/14 04:52:15;;;;;;;4.20;0.88;;;16.20;99.90;;;;;;5032127;28;20552;-40
2022/09/14 04:54:41;;;;;;;1.48;0.52;;;16.10;99.90;;;;;;5033835;28;20025;-40
2022/09/14 04:57:06;;;;;;;1.55;0.60;;;16.10;99.90;;;;;;5032643;28;20034;-40
2022/09/14 04:59:33;;;;;;;2.25;0.70;;;16.10;99.90;;;;;;5034123;28;20057;-39
2022/09/14 05:01:58;;;;;;;0.77;0.60;;;16.10;99.90;;;;;;5032250;28;20029;-38
2022/09/14 05:04:24;;;;;;;0.80;0.60;;;16.10;99.90;;;;;;5032437;28;20382;-46
2022/09/14 05:06:49;;;;;;;0.75;0.60;;;16.10;99.90;;;;;;5032311;28;20024;-41
2022/09/14 05:09:17;;;;;;;1.55;0.40;;;16.20;99.90;;;;;;5019877;28;20033;-40
2022/09/14 05:11:43;;;;;;;2.45;0.60;;;16.10;99.90;;;;;;5030447;28;20469;-39
2022/09/14 05:14:13;;;;;;;1.65;0.45;;;16.20;99.90;;;;;;5046662;28;20461;-38
2022/09/14 05:16:40;;;;;;;1.92;0.45;;;16.20;99.90;;;;;;5029363;28;20393;-40
2022/09/14 05:19:09;;;;;;;2.70;0.68;;;16.20;99.90;;;;;;5029220;28;20022;-41
2022/09/14 05:21:36;;;;;;;3.63;0.75;;;16.20;99.90;;;;;;5030103;28;20173;-40
2022/09/14 05:24:10;;;;;;;4.27;0.77;;;16.20;99.90;;;;;;5033206;28;20033;-53
2022/09/14 05:26:36;;;;;;;1.40;0.60;;;16.20;99.90;;;;;;5032528;28;21539;-48
2022/09/14 05:29:02;;;;;;;5.43;0.65;;;16.20;99.90;;;;;;5022963;28;20022;-39
2022/09/14 05:31:29;;;;;;;2.45;0.70;;;16.20;99.90;;;;;;5031054;28;20037;-40
2022/09/14 05:33:56;;;;;;;2.22;0.57;;;16.30;99.90;;;;;;5033445;28;20527;-41
2022/09/14 05:36:22;;;;;;;2.70;0.70;;;16.30;99.90;;;;;;5026723;28;20041;-75
2022/09/14 05:38:48;;;;;;;1.25;0.70;;;16.30;99.90;;;;;;5019308;28;20489;-40
2022/09/14 05:41:14;;;;;;;1.85;0.90;;;16.30;99.90;;;;;;5033434;28;20032;-35
2022/09/14 05:43:40;;;;;;;5.30;0.70;;;16.30;99.90;;;;;;5033049;28;20533;-40
2022/09/14 05:46:15;;;;;;;7.60;0.88;;;16.30;99.90;;;;;;5032322;28;20039;-42
2022/09/14 05:48:41;;;;;;;1.48;0.60;;;16.40;99.90;;;;;;5032496;28;20108;-42
2022/09/14 05:51:14;;;;;;;3.08;1.00;;;16.40;99.90;;;;;;5030037;28;20084;-38
2022/09/14 05:53:40;;;;;;;9.82;1.00;;;16.50;99.90;;;;;;5026291;28;20568;-41
2022/09/14 05:56:09;;;;;;;3.03;0.75;;;16.50;99.90;;;;;;5032340;28;20021;-41
2022/09/14 05:58:37;;;;;;;1.88;0.68;;;16.50;99.90;;;;;;5030586;28;20424;-42
2022/09/14 06:01:12;;;;;;;7.40;1.02;;;16.60;99.90;;;;;;5027476;28;20028;-41
2022/09/14 06:03:39;;;;;;;4.38;1.10;;;16.60;99.90;;;;;;5013774;28;20492;-41
2022/09/14 06:06:06;;;;;;;1.30;1.10;;;16.60;99.90;;;;;;5016632;28;20478;-41
2022/09/14 06:08:32;;;;;;;8.32;2.13;;;16.50;99.90;;;;;;5027172;28;20474;-40
2022/09/14 06:11:13;;;;;;;12.82;2.22;;;16.50;99.90;;;;;;5023745;28;20419;-41
2022/09/14 06:13:40;;;;;;;1.02;0.65;;;16.60;99.90;;;;;;5031304;28;20512;-42
2022/09/14 06:16:08;;;;;;;3.47;0.82;;;16.60;99.90;;;;;;5032330;28;20030;-40
2022/09/14 06:18:36;;;;;;;5.03;1.20;;;16.50;99.90;;;;;;5030318;28;20485;-42
2022/09/14 06:21:03;;;;;;;1.85;0.80;;;16.50;99.90;;;;;;5031805;28;20397;-39
2022/09/14 06:23:29;;;;;;;3.47;1.50;;;16.50;99.90;;;;;;5027026;28;20048;-57
2022/09/14 06:25:57;;;;;;;1.10;1.00;;;16.60;99.90;;;;;;5031761;28;20382;-41
2022/09/14 06:28:24;;;;;;;1.70;1.08;;;16.60;99.90;;;;;;5031229;28;20022;-40
2022/09/14 06:30:49;;;;;;;1.87;0.80;;;16.60;99.90;;;;;;5032450;28;20474;-42
2022/09/14 06:33:16;;;;;;;8.98;1.10;;;16.60;99.90;;;;;;5031177;28;20036;-38
2022/09/14 06:35:45;;;;;;;2.63;0.83;;;16.50;99.90;;;;;;5030381;28;21409;-40
2022/09/14 06:38:11;;;;;;;3.45;0.77;;;16.60;99.90;;;;;;5032077;28;20142;-41
2022/09/14 06:40:36;;;;;;;4.45;1.10;;;16.60;99.90;;;;;;5024555;28;20049;-42
2022/09/14 06:43:02;;;;;;;3.50;0.70;;;16.60;99.90;;;;;;5026208;28;20018;-39
2022/09/14 06:45:35;;;;;;;2.22;0.88;;;16.60;99.90;;;;;;5032240;28;20052;-42
2022/09/14 06:48:01;;;;;;;4.40;0.80;;;16.60;99.90;;;;;;5031207;28;20358;-42
2022/09/14 06:50:26;;;;;;;9.65;1.40;;;16.60;99.90;;;;;;5030670;28;20037;-43
2022/09/14 06:52:52;;;;;;;3.53;1.13;;;16.60;99.90;;;;;;5030052;28;20029;-56
2022/09/14 06:55:18;;;;;;;4.72;0.90;;;16.70;99.90;;;;;;5024803;28;20039;-41
2022/09/14 06:57:46;;;;;;;1.95;0.93;;;16.60;99.90;;;;;;5030710;28;20123;-41
2022/09/14 07:00:12;;;;;;;1.25;0.77;;;16.60;99.90;;;;;;5032182;28;20032;-35
2022/09/14 07:02:38;;;;;;;2.25;0.90;;;16.60;99.90;;;;;;5029359;28;20376;-41
2022/09/14 07:05:04;;;;;;;2.83;0.90;;;16.60;99.90;;;;;;5029983;28;20043;-40
2022/09/14 07:07:29;;;;;;;6.68;1.15;;;16.60;99.90;;;;;;5031077;28;20056;-46
2022/09/14 07:09:55;;;;;;;8.93;1.30;;;16.70;99.90;;;;;;5031310;28;20020;-40
2022/09/14 07:12:20;;;;;;;2.42;1.00;;;16.80;99.90;;;;;;5020636;28;20038;-39
2022/09/14 07:14:46;;;;;;;7.07;0.90;;;16.70;99.90;;;;;;5032143;28;20138;-38
2022/09/14 07:17:13;;;;;;;3.25;0.90;;;16.90;99.90;;;;;;5029498;28;20044;-39
2022/09/14 07:19:39;;;;;;;5.13;1.00;;;16.90;99.90;;;;;;5024836;28;20385;-40
2022/09/14 07:22:05;;;;;;;5.38;0.93;;;16.90;99.90;;;;;;5032034;28;20041;-41
2022/09/14 07:24:30;;;;;;;5.25;1.10;;;16.90;99.90;;;;;;5030958;28;20024;-35
2022/09/14 07:26:56;;;;;;;5.03;1.23;;;16.80;99.90;;;;;;5024507;28;20026;-41
2022/09/14 07:29:22;;;;;;;4.47;0.75;;;16.90;99.90;;;;;;5035814;28;20022;-40
2022/09/14 07:31:50;;;;;;;4.47;1.23;;;16.80;99.90;;;;;;5035165;28;20462;-41
2022/09/14 07:34:16;;;;;;;7.65;1.45;;;16.90;99.90;;;;;;5035259;28;20520;-40
2022/09/14 07:36:42;;;;;;;5.95;1.30;;;16.90;99.90;;;;;;5034838;28;20049;-39
2022/09/14 07:39:11;;;;;;;3.10;1.10;;;16.80;99.90;;;;;;5033647;28;20382;-37
2022/09/14 07:41:37;;;;;;;4.60;0.88;;;16.80;99.90;;;;;;5035241;28;20052;-40
2022/09/14 07:44:06;;;;;;;4.47;0.60;;;17.00;99.90;;;;;;5033418;28;20022;-41
2022/09/14 07:46:37;;;;;;;2.15;0.60;;;17.00;99.90;;;;;;5026048;28;20025;-40
2022/09/14 07:49:04;;;;;;;7.03;0.93;;;17.00;99.90;;;;;;5034710;28;20045;-39
2022/09/14 07:51:31;;;;;;;2.58;0.70;;;17.00;99.90;;;;;;5032225;28;20025;-41
2022/09/14 07:53:59;;;;;;;3.95;1.30;;;17.00;99.90;;;;;;5035167;28;20520;-57
2022/09/14 07:56:25;;;;;;;4.82;1.60;;;17.10;99.90;;;;;;5035033;28;20551;-39
2022/09/14 07:58:58;;;;;;;5.40;0.95;;;17.10;99.90;;;;;;5035005;28;20030;-40
2022/09/14 08:01:25;;;;;;;1.48;0.50;;;17.10;99.90;;;;;;5020039;28;20057;-42
2022/09/14 08:03:51;;;;;;;2.22;0.75;;;17.10;99.90;;;;;;5030970;28;20036;-40
2022/09/14 08:06:23;;;;;;;8.05;1.23;;;17.10;99.90;;;;;;5022678;28;20030;-38
2022/09/14 08:08:51;;;;;;;15.95;1.60;;;17.10;99.90;;;;;;5028767;28;20354;-39
2022/09/14 08:11:28;;;;;;;2.25;1.02;;;17.00;99.90;;;;;;5031690;28;20080;-40
2022/09/14 08:13:55;;;;;;;;;;;17.00;99.90;;;;;;5020178;28;20500;-41
2022/09/14 08:16:23;;;;;;;4.85;1.42;;;17.10;99.90;;;;;;5032895;28;20356;-39
2022/09/14 08:18:59;;;;;;;1.73;1.05;;;17.10;99.90;;;;;;5031942;28;20013;-39
2022/09/14 08:21:26;;;;;;;6.47;1.33;;;17.10;99.90;;;;;;5034276;28;20030;-40
2022/09/14 08:23:52;;;;;;;2.20;1.20;;;17.10;99.90;;;;;;5030750;28;20026;-41
2022/09/14 08:26:20;;;;;;;3.47;1.30;;;17.10;99.90;;;;;;5028570;28;20056;-41
2022/09/14 08:28:47;;;;;;;2.15;0.85;;;17.10;99.90;;;;;;5035406;28;20026;-39
2022/09/14 08:31:16;;;;;;;5.87;1.87;;;17.20;99.90;;;;;;5029257;28;20044;-40
2022/09/14 08:33:47;;;;;;;5.53;1.40;;;17.30;99.90;;;;;;5031081;28;20452;-40
2022/09/14 08:36:15;;;;;;;1.65;0.90;;;17.30;99.90;;;;;;5030705;28;20120;-40
2022/09/14 08:38:41;;;;;;;4.90;0.90;;;17.40;99.90;;;;;;5014728;28;20132;-40
2022/09/14 08:41:16;;;;;;;3.05;0.98;;;17.40;99.90;;;;;;5021727;28;20148;-45
2022/09/14 08:43:41;;;;;;;2.42;0.68;;;17.50;99.90;;;;;;5029122;28;20042;-40
2022/09/14 08:46:17;;;;;;;1.00;0.52;;;17.50;99.90;;;;;;5031135;28;20390;-41
2022/09/14 08:48:48;;;;;;;4.40;1.20;;;17.50;99.90;;;;;;5034793;28;20022;-40
2022/09/14 08:51:15;;;;;;;3.03;1.33;;;17.50;99.90;;;;;;5033879;28;20544;-41
2022/09/14 08:53:42;;;;;;;2.42;0.90;;;17.50;99.90;;;;;;5035024;28;20033;-42
2022/09/14 08:56:31;;;;;;;6.28;1.05;;;17.40;99.90;;;;;;5034909;28;20025;-41
2022/09/14 08:59:08;;;;;;;4.25;0.75;;;17.40;99.90;;;;;;5034462;28;20044;-43
2022/09/14 09:01:43;;;;;;;;;;;17.40;99.90;;;;;;5035067;28;20034;-41
2022/09/14 09:04:27;;;;;;;4.45;1.40;;;17.30;99.90;;;;;;5033700;28;20415;-41
2022/09/14 09:07:10;;;;;;;2.83;1.08;;;17.40;99.90;;;;;;5034727;28;20036;-40
2022/09/14 09:09:43;;;;;;;3.80;1.08;;;17.30;99.90;;;;;;5034720;28;20021;-40
2022/09/14 09:12:15;;;;;;;7.25;1.60;;;17.30;99.90;;;;;;5034753;28;20469;-42
2022/09/14 09:14:54;;;;;;;3.17;1.23;;;17.30;99.90;;;;;;5034446;28;20013;-40
2022/09/14 09:17:40;;;;;;;6.35;1.23;;;17.40;99.90;;;;;;5034359;28;20056;-40
2022/09/14 09:20:32;;;;;;;3.50;0.90;;;17.50;99.90;;;;;;5033149;28;20022;-41
2022/09/14 09:23:21;;;;;;;5.40;0.90;;;17.60;99.90;;;;;;5034451;28;20025;-40
2022/09/14 09:26:06;;;;;;;3.85;1.00;;;17.60;99.90;;;;;;5034111;28;20025;-43
2022/09/14 09:28:32;;;;;;;6.50;1.15;;;17.60;99.90;;;;;;5034602;28;20450;-41
2022/09/14 09:31:03;;;;;;;3.17;0.75;;;17.60;99.90;;;;;;5034060;28;20018;-40
2022/09/14 09:33:30;;;;;;;1.45;0.73;;;17.60;99.90;;;;;;5034348;28;20032;-40
2022/09/14 09:35:56;;;;;;;9.35;1.30;;;17.60;99.90;;;;;;5033802;28;20033;-40
2022/09/14 09:38:24;;;;;;;4.75;0.95;;;17.70;99.90;;;;;;5034028;28;20440;-41
2022/09/14 09:40:59;;;;;;;5.32;1.27;;;17.80;99.90;;;;;;5033943;28;20036;-40
2022/09/14 09:43:25;;;;;;;3.85;0.70;;;17.80;99.90;;;;;;5032599;28;20034;-40
2022/09/14 09:45:58;;;;;;;2.72;0.80;;;17.90;99.90;;;;;;5034068;28;20028;-39
2022/09/14 09:48:30;;;;;;;3.42;0.95;;;17.90;99.90;;;;;;5033328;28;20100;-40
2022/09/14 09:51:11;;;;;;;4.85;1.23;;;17.90;99.90;;;;;;5033572;28;20021;-37
2022/09/14 09:54:07;;;;;;;5.47;1.20;;;17.90;99.90;;;;;;5033523;28;20049;-35
2022/09/14 09:56:38;;;;;;;5.97;0.95;;;17.80;99.90;;;;;;5033557;28;20029;-32
2022/09/14 09:59:29;;;;;;;4.28;1.23;;;17.70;99.90;;;;;;5032349;28;20120;-35
2022/09/14 10:02:12;;;;;;;2.60;0.70;;;17.60;99.90;;;;;;5033627;28;20548;-42
2022/09/14 10:04:53;;;;;;;3.75;1.00;;;17.60;99.90;;;;;;5033825;28;20021;-40
2022/09/14 10:07:21;;;;;;;3.45;0.90;;;17.50;99.90;;;;;;5033416;28;20470;-40
2022/09/14 10:10:06;;;;;;;5.18;1.02;;;17.50;99.90;;;;;;5033412;28;20552;-41
2022/09/14 10:12:32;;;;;;;3.20;1.10;;;17.60;99.90;;;;;;5033620;28;20078;-41
2022/09/14 10:15:19;;;;;;;7.50;1.50;;;17.60;99.90;;;;;;5033493;28;20440;-39
2022/09/14 10:18:12;;;;;;;6.15;1.55;;;17.60;99.90;;;;;;5033326;28;20029;-41
2022/09/14 10:20:41;;;;;;;5.95;1.98;;;17.60;99.90;;;;;;5033335;28;20037;-42
2022/09/14 10:23:21;;;;;;;10.88;1.67;;;17.60;99.90;;;;;;5033121;28;20033;-49
2022/09/14 10:25:52;;;;;;;7.80;2.05;;;17.50;99.90;;;;;;5033433;28;20025;-38
2022/09/14 10:28:29;;;;;;;2.63;1.13;;;17.60;99.90;;;;;;5033133;28;20358;-38
2022/09/14 10:31:01;;;;;;;2.70;1.30;;;17.70;99.90;;;;;;5033117;28;20060;-41
2022/09/14 10:33:27;;;;;;;1.95;1.20;;;17.70;99.90;;;;;;5033361;28;20030;-41
2022/09/14 10:35:55;;;;;;;3.78;1.13;;;17.70;99.90;;;;;;5032958;28;20488;-39
2022/09/14 10:38:33;;;;;;;2.30;1.20;;;17.70;99.90;;;;;;5032824;28;20501;-38
2022/09/14 10:41:25;;;;;;;1.95;1.23;;;17.80;99.90;;;;;;5033087;28;20033;-38
2022/09/14 10:44:18;;;;;;;3.85;1.00;;;17.90;99.90;;;;;;5033191;28;20103;-40
2022/09/14 10:47:08;;;;;;;4.47;1.33;;;18.10;99.90;;;;;;5033239;28;20037;-42
2022/09/14 10:49:49;;;;;;;1.90;1.33;;;18.00;99.90;;;;;;5032906;28;20029;-40
2022/09/14 10:52:35;;;;;;;4.97;1.23;;;18.00;99.90;;;;;;5033027;28;20481;-39
2022/09/14 10:55:05;;;;;;;2.88;1.13;;;18.10;99.90;;;;;;5033231;28;20105;-53
2022/09/14 10:57:48;;;;;;;1.95;0.93;;;18.10;99.90;;;;;;5032857;28;20037;-38
2022/09/14 11:00:23;;;;;;;2.05;0.90;;;18.20;99.90;;;;;;5033895;28;20539;-48
2022/09/14 11:03:22;;;;;;;2.65;0.90;;;18.20;99.90;;;;;;5037070;28;20037;-51
2022/09/14 11:06:01;;;;;;;2.08;1.33;;;18.20;99.90;;;;;;5036827;28;20042;-39
2022/09/14 11:08:35;;;;;;;3.20;1.38;;;18.00;99.90;;;;;;5019180;28;20541;-40
2022/09/14 11:11:15;;;;;;;5.65;1.40;;;18.10;99.90;;;;;;5037270;28;20037;-40
2022/09/14 11:13:51;;;;;;;5.28;1.05;;;18.10;99.90;;;;;;5036693;28;20026;-40
2022/09/14 11:16:57;;;;;;;4.85;0.95;;;18.20;99.90;;;;;;5036698;28;20048;-38
2022/09/14 11:19:43;;;;;;;15.77;1.80;;;18.30;99.90;;;;;;5036654;28;20037;-38
2022/09/14 11:22:49;;;;;;;4.00;1.05;;;18.20;99.90;;;;;;5036583;28;20112;-39
2022/09/14 11:25:41;;;;;;;1.67;0.77;;;18.30;99.90;;;;;;5067354;28;20034;-38
2022/09/14 11:28:26;;;;;;;2.85;0.88;;;18.50;99.90;;;;;;5025491;28;20397;-39
2022/09/14 11:30:54;;;;;;;0.40;0.38;;;18.60;99.90;;;;;;5036505;28;20481;-40
2022/09/14 11:33:45;;;;;;;6.10;1.38;;;18.60;99.90;;;;;;5036368;28;20047;-39
2022/09/14 11:36:22;;;;;;;5.70;0.93;;;18.70;99.90;;;;;;5036302;28;20025;-40
2022/09/14 11:38:56;;;;;;;12.40;1.75;;;18.70;99.90;;;;;;5036034;28;20050;-40
2022/09/14 11:42:01;;;;;;;6.47;1.08;;;18.70;99.90;;;;;;5036155;28;20485;-40
2022/09/14 11:44:41;;;;;;;5.78;1.27;;;18.60;99.90;;;;;;5035482;28;20463;-41
2022/09/14 11:47:13;;;;;;;4.93;0.98;;;18.70;99.90;;;;;;5036147;28;20112;-37
2022/09/14 11:49:51;;;;;;;1.85;0.70;;;18.70;99.90;;;;;;5036305;28;20496;-38
2022/09/14 11:52:19;;;;;;;;;;;18.80;99.90;;;;;;5036585;28;20025;-40
2022/09/14 11:54:46;;;;;;;3.78;1.10;;;19.00;99.90;;;;;;5035907;28;19995;-41
2022/09/14 11:57:21;;;;;;;7.50;1.30;;;19.10;99.90;;;;;;5035909;28;20034;-40
2022/09/14 11:59:50;;;;;;;3.15;1.27;;;19.10;99.90;;;;;;5033390;28;20037;-41
2022/09/14 12:02:22;;;;;;;13.82;1.38;;;19.20;99.90;;;;;;5032603;28;20025;-54
2022/09/14 12:05:06;;;;;;;3.47;0.80;;;19.30;99.90;;;;;;5029791;28;20049;-39
2022/09/14 12:07:46;;;;;;;2.08;1.48;;;19.30;99.90;;;;;;5030479;28;20033;-41
2022/09/14 12:10:15;;;;;;;6.72;1.02;;;19.30;99.90;;;;;;5032041;28;20474;-41
2022/09/14 12:12:45;;;;;;;3.42;0.82;;;19.40;99.90;;;;;;5027345;28;20037;-38
2022/09/14 12:15:33;;;;;;;5.53;1.05;;;19.70;99.90;;;;;;5033381;28;20029;-44
2022/09/14 12:18:05;;;;;;;3.45;0.90;;;19.90;99.90;;;;;;5027116;28;20039;-39
2022/09/14 12:20:40;;;;;;;4.53;1.52;;;20.00;99.90;;;;;;5030036;28;20040;-40
2022/09/14 12:23:25;;;;;;;12.05;1.88;;;20.00;99.90;;;;;;5028600;28;20378;-42
2022/09/14 12:26:06;;;;;;;4.55;1.02;;;20.10;99.90;;;;;;5023958;28;20439;-38
2022/09/14 12:28:34;;;;;;;4.25;1.23;;;20.10;99.90;;;;;;5034951;28;20026;-39
2022/09/14 12:31:03;;;;;;;3.28;1.05;;;20.20;99.90;;;;;;5035327;28;20029;-39
2022/09/14 12:33:32;;;;;;;2.83;0.98;;;20.30;99.90;;;;;;5031480;28;20030;-30
2022/09/14 12:36:01;;;;;;;3.42;1.20;;;20.40;99.90;;;;;;5030883;28;20469;-32
2022/09/14 12:38:30;;;;;;;3.97;0.90;;;20.70;99.90;;;;;;5021052;28;20053;-54
2022/09/14 12:41:00;;;;;;;3.78;0.98;;;21.10;99.90;;;;;;5025414;28;20029;-32
2022/09/14 12:43:31;;;;;;;4.10;0.77;;;21.10;99.90;;;;;;5030576;28;20026;-36
2022/09/14 12:46:09;;;;;;;6.45;1.27;;;21.10;99.90;;;;;;5033117;28;20025;-32
2022/09/14 12:48:51;;;;;;;4.75;1.75;;;21.10;99.90;;;;;;5033831;28;20028;-35
2022/09/14 12:51:26;;;;;;;3.40;1.08;;;21.00;99.90;;;;;;5035057;28;20056;-35
2022/09/14 12:54:01;;;;;;;8.27;1.15;;;20.80;99.90;;;;;;5034582;28;20030;-35
2022/09/14 12:56:39;;;;;;;3.50;1.25;;;20.80;99.90;;;;;;5034349;28;20040;-35
2022/09/14 12:59:26;;;;;;;3.90;1.17;;;21.00;99.90;;;;;;5044659;28;20026;-34
2022/09/14 13:02:10;;;;;;;3.25;1.15;;;21.20;99.90;;;;;;5013373;28;20386;-36
2022/09/14 13:04:38;;;;;;;5.18;1.02;;;21.40;99.90;;;;;;5033400;28;20018;-30
2022/09/14 13:07:11;;;;;;;2.65;1.25;;;21.30;99.90;;;;;;5033078;28;20500;-31
2022/09/14 13:09:43;;;;;;;9.88;1.17;;;21.30;99.90;;;;;;5032908;28;20469;-32
2022/09/14 13:12:11;;;;;;;7.97;1.08;;;21.40;99.90;;;;;;5032855;28;20105;-42
2022/09/14 13:14:52;;;;;;;6.15;1.70;;;21.50;99.90;;;;;;5016697;28;20032;-29
2022/09/14 13:17:18;;;;;;;6.05;1.48;;;21.40;99.90;;;;;;5026092;28;20037;-32